Time;durP1;ratioP1;P1;durP2;ratioP2;P2;SDS_P1;SDS_P2;PMS_P1;PMS_P2;Temp;Humidity;BMP_temperature;BMP_pressure;BME280_temperature;BME280_humidity;BME280_pressure;Samples;Min_cycle;Max_cycle;Signal;HPM_P1;HPM_P2
2022/07/27 00:01:55;;;;;;;0.70;0.70;;;;;;;;;;4964809;28;20063;-65
2022/07/27 00:04:21;;;;;;;1.55;0.80;;;;;;;;;;4966590;28;20456;-61
2022/07/27 00:06:47;;;;;;;1.17;0.65;;;;;;;;;;4982629;28;20050;-61
2022/07/27 00:09:12;;;;;;;1.02;0.77;;;;;;;;;;4984467;28;20059;-62
2022/07/27 00:11:38;;;;;;;0.88;0.60;;;;;;;;;;4979406;28;20058;-60
2022/07/27 00:14:03;;;;;;;1.30;0.80;;;;;;;;;;4981538;28;20070;-60
2022/07/27 00:16:28;;;;;;;2.15;0.70;;;;;;;;;;4982617;28;20050;-60
2022/07/27 00:18:54;;;;;;;2.35;0.70;;;;;;;;;;4984129;28;20054;-61
2022/07/27 00:21:19;;;;;;;1.63;0.52;;;;;;;;;;4982260;28;20376;-61
2022/07/27 00:23:45;;;;;;;2.47;0.50;;;;;;;;;;4981240;28;20069;-60
2022/07/27 00:26:10;;;;;;;2.17;0.45;;;;;;;;;;5001449;28;20050;-61
2022/07/27 00:28:35;;;;;;;2.08;0.60;;;;;;;;;;4999551;28;20056;-60
2022/07/27 00:31:01;;;;;;;1.38;0.70;;;;;;;;;;5004094;28;20506;-60
2022/07/27 00:33:26;;;;;;;1.52;0.80;;;;;;;;;;4994925;28;20038;-62
2022/07/27 00:35:52;;;;;;;2.08;0.75;;;;;;;;;;4985200;28;20039;-61
2022/07/27 00:38:18;;;;;;;0.50;0.50;;;;;;;;;;5001808;28;20494;-61
2022/07/27 00:40:43;;;;;;;1.02;0.68;;;;;;;;;;4998456;28;20046;-63
2022/07/27 00:43:09;;;;;;;1.92;0.80;;;;;;;;;;4988281;28;20046;-60
2022/07/27 00:45:34;;;;;;;1.20;0.60;;;;;;;;;;4987587;28;20042;-61
2022/07/27 00:48:00;;;;;;;0.95;0.70;;;;;;;;;;4998846;28;20042;-62
2022/07/27 00:50:25;;;;;;;0.95;0.60;;;;;;;;;;4978836;28;20039;-62
2022/07/27 00:52:51;;;;;;;0.82;0.60;;;;;;;;;;4995658;28;20073;-62
2022/07/27 00:55:16;;;;;;;0.68;0.68;;;;;;;;;;5000339;28;20069;-62
2022/07/27 00:57:42;;;;;;;0.50;0.43;;;;;;;;;;4992919;28;20061;-61
2022/07/27 01:00:08;;;;;;;3.25;0.50;;;;;;;;;;4986089;28;20076;-60
2022/07/27 01:02:33;;;;;;;1.00;0.60;;;;;;;;;;5000557;28;20146;-57
2022/07/27 01:04:59;;;;;;;0.80;0.60;;;;;;;;;;4984481;28;20053;-55
2022/07/27 01:07:25;;;;;;;0.90;0.60;;;;;;;;;;4994687;28;20041;-55
2022/07/27 01:09:56;;;;;;;1.92;0.60;;;;;;;;;;4990397;28;20476;-59
2022/07/27 01:12:27;;;;;;;2.05;0.50;;;;;;;;;;4989145;28;20042;-55
2022/07/27 01:14:54;;;;;;;1.20;0.60;;;;;;;;;;5004359;28;20034;-61
2022/07/27 01:17:20;;;;;;;3.03;0.60;;;;;;;;;;5003432;28;20033;-57
2022/07/27 01:19:45;;;;;;;1.02;0.57;;;;;;;;;;4985598;28;20063;-55
2022/07/27 01:22:11;;;;;;;3.03;0.47;;;;;;;;;;4996254;28;20396;-58
2022/07/27 01:24:37;;;;;;;0.90;0.40;;;;;;;;;;4995948;28;20042;-57
2022/07/27 01:27:04;;;;;;;1.70;0.50;;;;;;;;;;4988753;28;20125;-57
2022/07/27 01:29:30;;;;;;;0.60;0.60;;;;;;;;;;5003367;28;20037;-56
2022/07/27 01:31:56;;;;;;;1.58;0.55;;;;;;;;;;4985828;28;20142;-58
2022/07/27 01:34:22;;;;;;;0.40;0.40;;;;;;;;;;4998901;28;20144;-53
2022/07/27 01:36:47;;;;;;;2.50;0.52;;;;;;;;;;4994818;28;20046;-57
2022/07/27 01:39:14;;;;;;;2.30;0.50;;;;;;;;;;4988626;28;20099;-57
2022/07/27 01:41:40;;;;;;;1.95;0.60;;;;;;;;;;5002605;28;20500;-58
2022/07/27 01:44:05;;;;;;;1.83;0.57;;;;;;;;;;4983933;28;20041;-58
2022/07/27 01:46:30;;;;;;;2.33;1.00;;;;;;;;;;5001242;28;20069;-56
2022/07/27 01:48:56;;;;;;;0.80;0.50;;;;;;;;;;4996631;28;20051;-56
2022/07/27 01:51:21;;;;;;;1.60;0.57;;;;;;;;;;4994551;28;20450;-55
2022/07/27 01:53:47;;;;;;;0.75;0.57;;;;;;;;;;5004055;28;20756;-56
2022/07/27 01:56:12;;;;;;;1.25;0.52;;;;;;;;;;5008092;28;20022;-63
2022/07/27 01:58:39;;;;;;;1.73;0.80;;;;;;;;;;4987600;28;20400;-54
2022/07/27 02:01:06;;;;;;;0.80;0.60;;;;;;;;;;4986281;28;20054;-57
2022/07/27 02:03:32;;;;;;;3.10;0.70;;;;;;;;;;4991798;28;20124;-56
2022/07/27 02:05:57;;;;;;;3.30;0.70;;;;;;;;;;5006776;28;20566;-58
2022/07/27 02:08:22;;;;;;;2.28;0.70;;;;;;;;;;5004691;28;20400;-57
2022/07/27 02:13:33;;;;;;;1.15;0.55;;;;;;;;;;4986607;28;20046;-58
2022/07/27 02:15:58;;;;;;;3.15;0.68;;;;;;;;;;4997970;28;20056;-55
2022/07/27 02:18:24;;;;;;;2.67;0.60;;;;;;;;;;4998729;28;20081;-55
2022/07/27 02:20:49;;;;;;;1.77;0.70;;;;;;;;;;4984077;28;20053;-58
2022/07/27 02:23:15;;;;;;;1.15;0.52;;;;;;;;;;5008117;28;21469;-55
2022/07/27 02:25:41;;;;;;;0.93;0.50;;;;;;;;;;4989064;28;20120;-56
2022/07/27 02:28:06;;;;;;;1.50;0.60;;;;;;;;;;4996888;28;20053;-55
2022/07/27 02:30:33;;;;;;;7.30;0.80;;;;;;;;;;4999228;28;20466;-56
2022/07/27 02:32:58;;;;;;;0.80;0.65;;;;;;;;;;4989908;28;20096;-57
2022/07/27 02:35:24;;;;;;;1.50;0.60;;;;;;;;;;5007852;28;20471;-56
2022/07/27 02:37:49;;;;;;;2.08;0.52;;;;;;;;;;4986826;28;20046;-57
2022/07/27 02:40:16;;;;;;;4.78;0.82;;;;;;;;;;5001122;28;20043;-56
2022/07/27 02:42:42;;;;;;;1.95;0.80;;;;;;;;;;4996692;28;20109;-53
2022/07/27 02:45:08;;;;;;;1.08;0.52;;;;;;;;;;4988066;28;20462;-56
2022/07/27 02:47:34;;;;;;;5.22;1.67;;;;;;;;;;5006182;28;20030;-54
2022/07/27 02:50:00;;;;;;;0.60;0.40;;;;;;;;;;4986627;28;20456;-50
2022/07/27 02:52:26;;;;;;;1.42;0.50;;;;;;;;;;4999511;28;20045;-54
2022/07/27 02:54:51;;;;;;;1.50;0.60;;;;;;;;;;5005192;28;20052;-60
2022/07/27 02:57:17;;;;;;;3.15;0.70;;;;;;;;;;5005443;28;20041;-57
2022/07/27 02:59:42;;;;;;;0.70;0.45;;;;;;;;;;5002658;28;20112;-54
2022/07/27 03:02:07;;;;;;;2.28;0.60;;;;;;;;;;5004898;28;20030;-51
2022/07/27 03:04:33;;;;;;;4.78;0.57;;;;;;;;;;5004472;28;20038;-55
2022/07/27 03:06:58;;;;;;;1.88;0.60;;;;;;;;;;5003216;28;20046;-55
2022/07/27 03:09:25;;;;;;;2.63;0.70;;;;;;;;;;5005720;28;20125;-56
2022/07/27 03:11:50;;;;;;;1.98;0.70;;;;;;;;;;5001639;28;20041;-57
2022/07/27 03:14:15;;;;;;;2.67;0.60;;;;;;;;;;5002688;28;20026;-57
2022/07/27 03:16:41;;;;;;;2.17;0.77;;;;;;;;;;5003169;28;20937;-58
2022/07/27 03:19:06;;;;;;;1.85;0.60;;;;;;;;;;5000458;28;20064;-55
2022/07/27 03:21:31;;;;;;;2.60;0.70;;;;;;;;;;5006399;28;20056;-54
2022/07/27 03:23:57;;;;;;;2.67;0.52;;;;;;;;;;5002240;28;20407;-55
2022/07/27 03:26:22;;;;;;;3.42;0.65;;;;;;;;;;5001425;28;20034;-58
2022/07/27 03:28:48;;;;;;;1.70;0.52;;;;;;;;;;5002337;28;20062;-54
2022/07/27 03:31:13;;;;;;;2.85;0.80;;;;;;;;;;5002942;28;20065;-56
2022/07/27 03:33:39;;;;;;;2.47;0.63;;;;;;;;;;5003401;28;20541;-55
2022/07/27 03:36:04;;;;;;;2.85;0.90;;;;;;;;;;5001353;28;20484;-56
2022/07/27 03:38:30;;;;;;;2.95;0.52;;;;;;;;;;5001853;28;20034;-56
2022/07/27 03:40:55;;;;;;;1.55;0.60;;;;;;;;;;5002878;28;20038;-57
2022/07/27 03:43:21;;;;;;;1.35;0.60;;;;;;;;;;5006097;28;20042;-56
2022/07/27 03:45:47;;;;;;;2.95;0.85;;;;;;;;;;4991892;28;20058;-58
2022/07/27 03:48:12;;;;;;;2.08;0.68;;;;;;;;;;4986480;28;20491;-58
2022/07/27 03:50:38;;;;;;;1.13;0.70;;;;;;;;;;4985403;28;20042;-55
2022/07/27 03:53:03;;;;;;;2.33;0.70;;;;;;;;;;5002291;28;20089;-56
2022/07/27 03:55:29;;;;;;;2.58;0.70;;;;;;;;;;4987398;28;20050;-58
2022/07/27 03:57:54;;;;;;;0.70;0.60;;;;;;;;;;4992900;28;20194;-57
2022/07/27 04:00:20;;;;;;;2.60;0.70;;;;;;;;;;5001090;28;20137;-57
2022/07/27 04:02:46;;;;;;;3.90;0.90;;;;;;;;;;4980450;28;20038;-56
2022/07/27 04:05:11;;;;;;;1.52;0.90;;;;;;;;;;5003512;28;20120;-55
2022/07/27 04:07:38;;;;;;;1.60;0.60;;;;;;;;;;4984516;28;20480;-56
2022/07/27 04:10:04;;;;;;;1.30;0.70;;;;;;;;;;4996339;28;20041;-57
2022/07/27 04:12:29;;;;;;;1.48;1.00;;;;;;;;;;4998212;28;20070;-58
2022/07/27 04:14:55;;;;;;;3.50;1.27;;;;;;;;;;4980622;28;21277;-58
2022/07/27 04:17:20;;;;;;;2.50;0.90;;;;;;;;;;4983545;28;20062;-56
2022/07/27 04:19:45;;;;;;;2.38;0.93;;;;;;;;;;4999184;28;20524;-56
2022/07/27 04:22:11;;;;;;;2.92;0.80;;;;;;;;;;4990620;28;20430;-58
2022/07/27 04:24:36;;;;;;;4.68;1.15;;;;;;;;;;4979986;28;20117;-57
2022/07/27 04:27:02;;;;;;;3.35;0.68;;;;;;;;;;4985363;28;20054;-57
2022/07/27 04:29:27;;;;;;;4.85;1.42;;;;;;;;;;4983662;28;20698;-57
2022/07/27 04:31:52;;;;;;;1.67;0.80;;;;;;;;;;5002278;28;20484;-59
2022/07/27 04:34:18;;;;;;;2.22;0.95;;;;;;;;;;4998687;28;20133;-54
2022/07/27 04:36:44;;;;;;;5.50;1.00;;;;;;;;;;4992091;28;20508;-55
2022/07/27 04:39:09;;;;;;;8.13;1.48;;;;;;;;;;4979950;28;20057;-57
2022/07/27 04:41:35;;;;;;;6.80;1.00;;;;;;;;;;4985928;28;20023;-58
2022/07/27 04:44:00;;;;;;;3.78;0.90;;;;;;;;;;4981653;28;20074;-53
2022/07/27 04:46:27;;;;;;;1.42;0.75;;;;;;;;;;4999347;28;20034;-55
2022/07/27 04:48:52;;;;;;;2.15;1.15;;;;;;;;;;4999483;28;20107;-57
2022/07/27 04:51:18;;;;;;;3.15;1.05;;;;;;;;;;4998334;28;20050;-55
2022/07/27 04:53:43;;;;;;;3.85;1.25;;;;;;;;;;4981347;28;21088;-57
2022/07/27 04:56:09;;;;;;;3.83;1.70;;;;;;;;;;5002221;28;20044;-57
2022/07/27 04:58:36;;;;;;;3.05;1.13;;;;;;;;;;4988316;28;20172;-57
2022/07/27 05:01:01;;;;;;;3.70;0.80;;;;;;;;;;4993876;28;20054;-59
2022/07/27 05:03:27;;;;;;;1.88;0.70;;;;;;;;;;5005337;28;20092;-59
2022/07/27 05:05:53;;;;;;;5.47;0.90;;;;;;;;;;4999662;28;20048;-59
2022/07/27 05:08:18;;;;;;;2.75;0.93;;;;;;;;;;4985689;28;20038;-59
2022/07/27 05:10:44;;;;;;;1.95;0.82;;;;;;;;;;4994839;28;20053;-59
2022/07/27 05:13:10;;;;;;;3.92;1.05;;;;;;;;;;4988729;28;21036;-60
2022/07/27 05:15:36;;;;;;;6.45;0.90;;;;;;;;;;4989926;28;20054;-59
2022/07/27 05:18:02;;;;;;;7.28;1.58;;;;;;;;;;4997755;28;20101;-60
2022/07/27 05:20:27;;;;;;;3.08;1.08;;;;;;;;;;4985579;28;20178;-59
2022/07/27 05:22:53;;;;;;;4.68;0.95;;;;;;;;;;5004550;28;20052;-60
2022/07/27 05:25:20;;;;;;;3.10;0.80;;;;;;;;;;4991354;28;20096;-60
2022/07/27 05:27:46;;;;;;;2.40;0.90;;;;;;;;;;4996716;28;20050;-60
2022/07/27 05:30:12;;;;;;;5.45;1.20;;;;;;;;;;5006332;28;20505;-60
2022/07/27 05:32:37;;;;;;;3.42;1.13;;;;;;;;;;5007060;28;20025;-60
2022/07/27 05:35:03;;;;;;;4.07;1.00;;;;;;;;;;5003122;28;20050;-59
2022/07/27 05:37:29;;;;;;;5.60;1.20;;;;;;;;;;4988115;28;20503;-59
2022/07/27 05:39:54;;;;;;;3.45;0.93;;;;;;;;;;4994483;28;21593;-60
2022/07/27 05:42:20;;;;;;;4.82;1.33;;;;;;;;;;5005051;28;20049;-60
2022/07/27 05:44:45;;;;;;;4.38;0.93;;;;;;;;;;5003712;28;20155;-60
2022/07/27 05:47:10;;;;;;;2.35;1.05;;;;;;;;;;5007504;28;20063;-60
2022/07/27 05:49:36;;;;;;;7.30;1.20;;;;;;;;;;5002251;28;20561;-60
2022/07/27 05:52:01;;;;;;;5.97;1.10;;;;;;;;;;5008831;28;20050;-60
2022/07/27 05:54:27;;;;;;;4.35;1.05;;;;;;;;;;5006418;28;20046;-59
2022/07/27 05:56:52;;;;;;;3.67;0.95;;;;;;;;;;5005010;28;20033;-60
2022/07/27 05:59:17;;;;;;;1.83;0.82;;;;;;;;;;5005358;28;20042;-60
2022/07/27 06:01:43;;;;;;;4.70;0.90;;;;;;;;;;5004638;28;21535;-63
2022/07/27 06:04:08;;;;;;;2.67;0.80;;;;;;;;;;5007001;28;20047;-60
2022/07/27 06:09:17;;;;;;;6.53;1.10;;;;;;;;;;5003498;28;20052;-61
2022/07/27 06:11:43;;;;;;;6.47;1.13;;;;;;;;;;5004427;28;20033;-60
2022/07/27 06:14:08;;;;;;;6.53;1.25;;;;;;;;;;5004805;28;20080;-61
2022/07/27 06:16:34;;;;;;;4.97;1.15;;;;;;;;;;5002761;28;20049;-60
2022/07/27 06:19:00;;;;;;;4.53;0.88;;;;;;;;;;5004234;28;20049;-60
2022/07/27 06:21:27;;;;;;;4.93;1.20;;;;;;;;;;5006761;28;20487;-62
2022/07/27 06:23:55;;;;;;;7.82;1.23;;;;;;;;;;5002667;28;20446;-60
2022/07/27 06:26:20;;;;;;;6.47;1.10;;;;;;;;;;5006454;28;20030;-61
2022/07/27 06:28:46;;;;;;;5.35;1.20;;;;;;;;;;5002211;28;20177;-61
2022/07/27 06:31:12;;;;;;;4.07;1.30;;;;;;;;;;5005019;28;20435;-62
2022/07/27 06:33:37;;;;;;;6.10;0.98;;;;;;;;;;5007098;28;20046;-61
2022/07/27 06:36:04;;;;;;;5.70;1.10;;;;;;;;;;5001717;28;20054;-61
2022/07/27 06:38:30;;;;;;;4.53;0.98;;;;;;;;;;5006026;28;20049;-62
2022/07/27 06:40:57;;;;;;;6.57;0.90;;;;;;;;;;5001824;28;20395;-61
2022/07/27 06:43:25;;;;;;;6.00;1.50;;;;;;;;;;5006758;28;20528;-61
2022/07/27 06:45:52;;;;;;;5.07;0.90;;;;;;;;;;5001561;28;20124;-60
2022/07/27 06:48:20;;;;;;;2.65;1.00;;;;;;;;;;5001605;28;20046;-61
2022/07/27 06:50:45;;;;;;;5.45;1.13;;;;;;;;;;5000502;28;20108;-60
2022/07/27 06:53:11;;;;;;;5.93;1.23;;;;;;;;;;5003486;28;20664;-61
2022/07/27 06:55:37;;;;;;;4.68;1.10;;;;;;;;;;5001892;28;20458;-62
2022/07/27 06:58:03;;;;;;;5.55;1.40;;;;;;;;;;5002019;28;20492;-62
2022/07/27 07:00:28;;;;;;;2.83;1.10;;;;;;;;;;4999972;28;20045;-62
2022/07/27 07:02:57;;;;;;;6.10;1.25;;;;;;;;;;5003533;28;20751;-62
2022/07/27 07:05:22;;;;;;;4.85;1.38;;;;;;;;;;5000256;28;20045;-62
2022/07/27 07:07:48;;;;;;;5.57;1.30;;;;;;;;;;5002486;28;20038;-62
2022/07/27 07:10:14;;;;;;;7.55;1.35;;;;;;;;;;5004294;28;20042;-60
2022/07/27 07:12:39;;;;;;;2.97;1.35;;;;;;;;;;5003924;28;20042;-60
2022/07/27 07:15:05;;;;;;;4.78;1.15;;;;;;;;;;5002172;28;20061;-62
2022/07/27 07:17:30;;;;;;;3.92;1.08;;;;;;;;;;5005677;28;20065;-60
2022/07/27 07:19:56;;;;;;;6.13;1.17;;;;;;;;;;5004664;28;20511;-62
2022/07/27 07:22:21;;;;;;;4.05;1.52;;;;;;;;;;5004575;28;20060;-63
2022/07/27 07:24:47;;;;;;;5.82;1.27;;;;;;;;;;5003639;28;20042;-61
2022/07/27 07:27:12;;;;;;;5.43;1.45;;;;;;;;;;5009080;28;20192;-61
2022/07/27 07:29:37;;;;;;;8.10;1.40;;;;;;;;;;5003757;28;20065;-60
2022/07/27 07:32:03;;;;;;;5.35;1.00;;;;;;;;;;5005923;28;20511;-63
2022/07/27 07:34:28;;;;;;;3.92;1.13;;;;;;;;;;5009416;28;20095;-60
2022/07/27 07:36:54;;;;;;;5.95;1.73;;;;;;;;;;5010147;28;20158;-61
2022/07/27 07:39:20;;;;;;;6.00;1.00;;;;;;;;;;5003151;28;20046;-61
2022/07/27 07:41:45;;;;;;;6.20;1.30;;;;;;;;;;5004429;28;20037;-61
2022/07/27 07:44:10;;;;;;;4.85;1.02;;;;;;;;;;4997059;28;20037;-60
2022/07/27 07:46:36;;;;;;;4.60;1.13;;;;;;;;;;5012349;28;20129;-61
2022/07/27 07:49:03;;;;;;;4.57;1.15;;;;;;;;;;5004169;28;20044;-60
2022/07/27 07:51:28;;;;;;;5.43;1.13;;;;;;;;;;5010722;28;20483;-60
2022/07/27 07:53:53;;;;;;;7.45;1.00;;;;;;;;;;5006667;28;20327;-61
2022/07/27 07:56:19;;;;;;;4.38;1.00;;;;;;;;;;5011013;28;20030;-61
2022/07/27 07:58:44;;;;;;;5.82;1.02;;;;;;;;;;5004121;28;20077;-60
2022/07/27 08:01:11;;;;;;;2.97;1.05;;;;;;;;;;5000471;28;20503;-61
2022/07/27 08:03:36;;;;;;;4.50;1.20;;;;;;;;;;5006189;28;20354;-60
2022/07/27 08:06:02;;;;;;;4.85;1.10;;;;;;;;;;5002284;28;20054;-62
2022/07/27 08:08:28;;;;;;;4.95;1.20;;;;;;;;;;5001143;28;20555;-60
2022/07/27 08:10:54;;;;;;;5.45;1.15;;;;;;;;;;4999589;28;20062;-59
2022/07/27 08:13:20;;;;;;;2.38;1.10;;;;;;;;;;5011384;28;20076;-60
2022/07/27 08:15:46;;;;;;;6.50;1.20;;;;;;;;;;5009275;28;20073;-60
2022/07/27 08:18:11;;;;;;;4.57;1.05;;;;;;;;;;5007913;28;20078;-60
2022/07/27 08:20:37;;;;;;;5.32;1.17;;;;;;;;;;5009737;28;20041;-61
2022/07/27 08:23:03;;;;;;;6.63;1.20;;;;;;;;;;5005130;28;20042;-60
2022/07/27 08:25:29;;;;;;;6.10;1.30;;;;;;;;;;4990306;28;20288;-61
2022/07/27 08:27:54;;;;;;;4.82;1.00;;;;;;;;;;4984673;28;20061;-62
2022/07/27 08:30:20;;;;;;;4.95;1.00;;;;;;;;;;4991395;28;20136;-60
2022/07/27 08:32:50;;;;;;;5.93;1.20;;;;;;;;;;5004248;28;20398;-59
2022/07/27 08:35:17;;;;;;;5.47;1.08;;;;;;;;;;5007741;28;20033;-59
2022/07/27 08:37:43;;;;;;;4.18;0.90;;;;;;;;;;4989967;28;20054;-61
2022/07/27 08:40:09;;;;;;;3.58;1.10;;;;;;;;;;4999315;28;20046;-61
2022/07/27 08:42:34;;;;;;;5.55;1.30;;;;;;;;;;5007968;28;20483;-61
2022/07/27 08:45:01;;;;;;;5.05;1.38;;;;;;;;;;5001745;28;20050;-59
2022/07/27 08:47:26;;;;;;;7.30;1.63;;;;;;;;;;4985810;28;20045;-62
2022/07/27 08:49:52;;;;;;;6.20;1.60;;;;;;;;;;5002491;28;20050;-62
2022/07/27 08:52:18;;;;;;;5.05;1.20;;;;;;;;;;4990770;28;20096;-63
2022/07/27 08:54:45;;;;;;;3.88;1.10;;;;;;;;;;4991412;28;20042;-61
2022/07/27 08:57:11;;;;;;;5.53;1.10;;;;;;;;;;4989377;28;20165;-63
2022/07/27 08:59:37;;;;;;;8.18;1.45;;;;;;;;;;5013972;28;20036;-61
2022/07/27 09:02:09;;;;;;;6.25;1.10;;;;;;;;;;5004151;28;20138;-66
2022/07/27 09:04:35;;;;;;;3.35;1.40;;;;;;;;;;4985469;28;20428;-61
2022/07/27 09:07:00;;;;;;;5.40;1.25;;;;;;;;;;4999750;28;20034;-62
2022/07/27 09:09:25;;;;;;;6.50;1.13;;;;;;;;;;5007149;28;20121;-62
2022/07/27 09:12:09;;;;;;;4.47;1.10;;;;;;;;;;5003572;28;20057;-62
2022/07/27 09:14:38;;;;;;;3.70;1.55;;;;;;;;;;4990011;28;20731;-63
2022/07/27 09:17:24;;;;;;;3.75;1.05;;;;;;;;;;4979982;28;20042;-62
2022/07/27 09:19:57;;;;;;;3.33;0.88;;;;;;;;;;4984124;28;20561;-61
2022/07/27 09:22:45;;;;;;;5.10;1.10;;;;;;;;;;5008400;28;20435;-64
2022/07/27 09:25:15;;;;;;;6.68;1.63;;;;;;;;;;4996189;28;20053;-63
2022/07/27 09:27:42;;;;;;;7.90;1.55;;;;;;;;;;4996437;28;20050;-62
2022/07/27 09:30:15;;;;;;;3.30;1.00;;;;;;;;;;5006411;28;20050;-63
2022/07/27 09:32:50;;;;;;;;;;;;;;;;;;4994536;28;20030;-62
2022/07/27 09:35:16;;;;;;;2.78;1.10;;;;;;;;;;5010337;28;20687;-61
2022/07/27 09:37:41;;;;;;;4.85;1.40;;;;;;;;;;4991361;28;20039;-62
2022/07/27 09:40:28;;;;;;;4.35;1.17;;;;;;;;;;4990479;28;20073;-61
2022/07/27 09:43:09;;;;;;;2.35;1.00;;;;;;;;;;4989572;28;20343;-60
2022/07/27 09:45:36;;;;;;;3.38;1.27;;;;;;;;;;4995396;28;20256;-61
2022/07/27 09:48:10;;;;;;;4.47;1.25;;;;;;;;;;5004556;28;20046;-63
2022/07/27 09:50:40;;;;;;;4.47;1.00;;;;;;;;;;4991226;28;20037;-61
2022/07/27 09:53:20;;;;;;;3.17;0.93;;;;;;;;;;5001228;28;20664;-60
2022/07/27 09:56:12;;;;;;;3.92;1.33;;;;;;;;;;4987910;28;20054;-61
2022/07/27 09:58:43;;;;;;;5.32;1.33;;;;;;;;;;5005269;28;20045;-61
2022/07/27 10:01:12;;;;;;;3.13;1.30;;;;;;;;;;5021068;28;20108;-61
2022/07/27 10:03:39;;;;;;;6.78;1.08;;;;;;;;;;5001128;28;20054;-61
2022/07/27 10:06:04;;;;;;;3.80;1.23;;;;;;;;;;4994425;28;20054;-61
2022/07/27 10:08:31;;;;;;;3.33;1.30;;;;;;;;;;5005614;28;20041;-61
2022/07/27 10:10:57;;;;;;;3.83;1.35;;;;;;;;;;4986469;28;20063;-61
2022/07/27 10:13:23;;;;;;;4.18;1.42;;;;;;;;;;5002939;28;20042;-61
2022/07/27 10:15:49;;;;;;;3.08;1.30;;;;;;;;;;5006608;28;20042;-61
2022/07/27 10:18:21;;;;;;;6.18;1.30;;;;;;;;;;5007250;28;20556;-63
2022/07/27 10:20:46;;;;;;;4.63;1.10;;;;;;;;;;5008464;28;21776;-62
2022/07/27 10:23:26;;;;;;;3.58;1.10;;;;;;;;;;5010035;28;20052;-62
2022/07/27 10:26:11;;;;;;;2.50;1.05;;;;;;;;;;4983492;28;20061;-61
2022/07/27 10:28:50;;;;;;;4.68;1.05;;;;;;;;;;5006790;28;20132;-61
2022/07/27 10:31:18;;;;;;;4.90;1.13;;;;;;;;;;5007099;28;20510;-61
2022/07/27 10:33:47;;;;;;;3.83;1.13;;;;;;;;;;5002172;28;20062;-62
2022/07/27 10:36:23;;;;;;;2.05;1.10;;;;;;;;;;4992835;28;20503;-63
2022/07/27 10:38:57;;;;;;;4.70;1.40;;;;;;;;;;5007810;28;20026;-63
2022/07/27 10:41:26;;;;;;;4.70;1.35;;;;;;;;;;4987315;28;20496;-64
2022/07/27 10:44:24;;;;;;;3.88;1.00;;;;;;;;;;5007741;28;20414;-63
2022/07/27 10:47:02;;;;;;;3.75;1.00;;;;;;;;;;4989119;28;20045;-61
2022/07/27 10:49:29;;;;;;;4.80;1.20;;;;;;;;;;5003943;28;20038;-61
2022/07/27 10:51:57;;;;;;;4.82;0.93;;;;;;;;;;4996585;28;20046;-61
2022/07/27 10:54:31;;;;;;;6.35;1.33;;;;;;;;;;4995017;28;20038;-61
2022/07/27 10:56:59;;;;;;;6.00;1.40;;;;;;;;;;5004657;28;20033;-61
2022/07/27 10:59:40;;;;;;;2.45;1.08;;;;;;;;;;4987208;28;20112;-62
2022/07/27 11:02:07;;;;;;;4.50;1.30;;;;;;;;;;4986109;28;20051;-61
2022/07/27 11:04:41;;;;;;;4.15;0.90;;;;;;;;;;4986382;28;20388;-61
2022/07/27 11:07:06;;;;;;;4.03;1.05;;;;;;;;;;4983357;28;20404;-62
2022/07/27 11:09:37;;;;;;;5.18;1.40;;;;;;;;;;4988622;28;20050;-62
2022/07/27 11:12:05;;;;;;;3.88;1.23;;;;;;;;;;4989494;28;20411;-62
2022/07/27 11:14:30;;;;;;;4.28;1.55;;;;;;;;;;5008596;28;20448;-61
2022/07/27 11:16:56;;;;;;;5.95;1.27;;;;;;;;;;4989044;28;20043;-61
2022/07/27 11:19:22;;;;;;;3.53;1.08;;;;;;;;;;4999828;28;20101;-61
2022/07/27 11:21:48;;;;;;;4.63;1.02;;;;;;;;;;4995940;28;20399;-61
2022/07/27 11:24:17;;;;;;;3.50;1.10;;;;;;;;;;4989463;28;20045;-61
2022/07/27 11:26:45;;;;;;;3.13;1.20;;;;;;;;;;5006938;28;20045;-61
2022/07/27 11:29:13;;;;;;;6.68;1.60;;;;;;;;;;4986145;28;20026;-62
2022/07/27 11:31:40;;;;;;;2.63;1.00;;;;;;;;;;4989296;28;20042;-62
2022/07/27 11:34:06;;;;;;;2.55;0.90;;;;;;;;;;4982994;28;20050;-62
2022/07/27 11:36:40;;;;;;;5.80;1.10;;;;;;;;;;4983428;28;20404;-61
2022/07/27 11:39:09;;;;;;;6.05;1.20;;;;;;;;;;4984122;28;20793;-62
2022/07/27 11:41:35;;;;;;;5.13;1.35;;;;;;;;;;4989688;28;20557;-61
2022/07/27 11:44:09;;;;;;;4.72;1.13;;;;;;;;;;4978763;28;20066;-61
2022/07/27 11:46:43;;;;;;;2.60;1.00;;;;;;;;;;4984418;28;20069;-61
2022/07/27 11:49:10;;;;;;;3.55;1.05;;;;;;;;;;4982144;28;20829;-61
2022/07/27 11:51:47;;;;;;;1.00;0.70;;;;;;;;;;4984529;28;20096;-61
2022/07/27 11:54:22;;;;;;;4.18;1.00;;;;;;;;;;4980796;28;20069;-62
2022/07/27 11:56:49;;;;;;;3.75;0.90;;;;;;;;;;4987918;28;20042;-61
2022/07/27 11:59:20;;;;;;;4.55;0.90;;;;;;;;;;4982269;28;20096;-61
2022/07/27 12:01:57;;;;;;;1.75;0.90;;;;;;;;;;4981919;28;20365;-61
2022/07/27 12:04:37;;;;;;;5.50;1.17;;;;;;;;;;4988349;28;20050;-61
2022/07/27 12:07:26;;;;;;;8.00;1.13;;;;;;;;;;4990293;28;20097;-61
2022/07/27 12:10:02;;;;;;;2.08;0.85;;;;;;;;;;4989488;28;20043;-63
2022/07/27 12:12:33;;;;;;;2.60;1.10;;;;;;;;;;4991164;28;20050;-63
2022/07/27 12:15:12;;;;;;;3.65;1.00;;;;;;;;;;4983992;28;20038;-63
2022/07/27 12:22:47;;;;;;;5.57;0.93;;;;;;;;;;4931609;28;20738;-75
2022/07/27 12:25:15;;;;;;;2.67;0.90;;;;;;;;;;4932686;28;20507;-73
2022/07/27 12:27:57;;;;;;;4.00;0.93;;;;;;;;;;4934946;28;20040;-77
2022/07/27 12:30:35;;;;;;;3.25;0.80;;;;;;;;;;4932690;28;20594;-76
2022/07/27 12:33:02;;;;;;;3.00;1.10;;;;;;;;;;4932669;28;20094;-73
2022/07/27 12:35:32;;;;;;;4.07;0.90;;;;;;;;;;4933438;29;20073;-74
2022/07/27 12:38:01;;;;;;;3.63;0.93;;;;;;;;;;4950401;28;20031;-75
2022/07/27 12:40:27;;;;;;;2.88;0.95;;;;;;;;;;4948660;28;20443;-74
2022/07/27 12:43:01;;;;;;;3.17;1.10;;;;;;;;;;4947975;28;21416;-73
2022/07/27 12:45:35;;;;;;;2.53;0.90;;;;;;;;;;4943850;28;20059;-74
2022/07/27 12:48:15;;;;;;;4.80;1.15;;;;;;;;;;4937448;28;20372;-73
2022/07/27 12:50:42;;;;;;;4.15;0.80;;;;;;;;;;4954592;28;20042;-75
2022/07/27 12:53:09;;;;;;;3.92;0.77;;;;;;;;;;4933375;29;20028;-73
2022/07/27 12:55:35;;;;;;;5.75;0.90;;;;;;;;;;4932934;28;20098;-74
2022/07/27 12:58:00;;;;;;;2.33;0.85;;;;;;;;;;4933191;28;20032;-73
2022/07/27 13:00:29;;;;;;;3.47;1.00;;;;;;;;;;4933951;28;20063;-73
2022/07/27 13:02:55;;;;;;;5.40;1.15;;;;;;;;;;4935322;28;20032;-74
2022/07/27 13:05:20;;;;;;;2.75;0.90;;;;;;;;;;4937715;29;20511;-74
2022/07/27 13:07:46;;;;;;;2.75;1.02;;;;;;;;;;4932263;28;20042;-71
2022/07/27 13:10:13;;;;;;;7.10;0.90;;;;;;;;;;4932317;28;20525;-75
2022/07/27 13:12:38;;;;;;;4.88;0.90;;;;;;;;;;4934200;28;20081;-75
2022/07/27 13:15:06;;;;;;;4.60;0.80;;;;;;;;;;4937093;28;20128;-74
2022/07/27 13:17:31;;;;;;;2.28;0.70;;;;;;;;;;4948932;28;20035;-74
2022/07/27 13:19:57;;;;;;;3.28;0.80;;;;;;;;;;4952951;28;20403;-75
2022/07/27 13:22:22;;;;;;;4.30;0.90;;;;;;;;;;4968206;28;20031;-75
2022/07/27 13:24:48;;;;;;;1.63;0.70;;;;;;;;;;4931862;28;20040;-74
2022/07/27 13:27:13;;;;;;;3.22;1.20;;;;;;;;;;4931200;28;20094;-76
2022/07/27 13:29:39;;;;;;;3.28;0.80;;;;;;;;;;4932867;29;20020;-77
2022/07/27 13:32:05;;;;;;;3.60;0.70;;;;;;;;;;4963127;28;20145;-75
2022/07/27 13:34:31;;;;;;;4.35;0.90;;;;;;;;;;4932331;28;20071;-76
2022/07/27 13:36:56;;;;;;;1.95;0.80;;;;;;;;;;4931394;28;20071;-73
2022/07/27 13:39:21;;;;;;;2.63;0.68;;;;;;;;;;4936991;28;20200;-75
2022/07/27 13:41:51;;;;;;;0.75;0.50;;;;;;;;;;4951483;28;20031;-73
2022/07/27 13:44:20;;;;;;;3.45;0.88;;;;;;;;;;4954808;28;20035;-73
2022/07/27 13:46:46;;;;;;;3.33;0.98;;;;;;;;;;4939004;28;20040;-75
2022/07/27 13:49:12;;;;;;;3.92;0.80;;;;;;;;;;4947452;28;20046;-75
2022/07/27 13:51:38;;;;;;;2.90;0.75;;;;;;;;;;4948736;28;20571;-75
2022/07/27 13:54:03;;;;;;;2.45;0.70;;;;;;;;;;4935980;28;20217;-75
2022/07/27 13:56:31;;;;;;;4.22;0.75;;;;;;;;;;4936982;29;20030;-75
2022/07/27 13:58:57;;;;;;;4.82;1.00;;;;;;;;;;4952998;28;20031;-76
2022/07/27 14:01:22;;;;;;;2.00;0.60;;;;;;;;;;4954011;28;20487;-76
2022/07/27 14:03:48;;;;;;;1.80;0.65;;;;;;;;;;4983347;28;20142;-75
2022/07/27 14:06:13;;;;;;;3.40;0.90;;;;;;;;;;4954278;28;20847;-74
2022/07/27 14:08:39;;;;;;;3.33;0.73;;;;;;;;;;4937518;29;20035;-76
2022/07/27 14:11:05;;;;;;;3.13;0.68;;;;;;;;;;4955570;28;20051;-74
2022/07/27 14:13:31;;;;;;;2.17;0.95;;;;;;;;;;4953971;28;20038;-77
2022/07/27 14:15:57;;;;;;;2.38;1.00;;;;;;;;;;4953322;28;20035;-76
2022/07/27 14:18:25;;;;;;;4.30;0.88;;;;;;;;;;4957098;28;20437;-77
2022/07/27 14:20:51;;;;;;;2.10;0.68;;;;;;;;;;4952659;28;20386;-78
2022/07/27 14:23:16;;;;;;;3.92;0.80;;;;;;;;;;4955369;28;20031;-78
2022/07/27 14:25:42;;;;;;;2.17;1.00;;;;;;;;;;4986642;28;20554;-78
2022/07/27 14:28:07;;;;;;;2.55;0.90;;;;;;;;;;4956475;28;21597;-80
2022/07/27 14:30:33;;;;;;;2.80;0.80;;;;;;;;;;4954241;28;20035;-82
2022/07/27 14:33:01;;;;;;;2.80;0.90;;;;;;;;;;4954178;28;20065;-79
2022/07/27 14:35:27;;;;;;;2.15;0.90;;;;;;;;;;4956000;28;20042;-81
2022/07/27 14:37:53;;;;;;;2.45;0.77;;;;;;;;;;4954616;28;20063;-80
2022/07/27 14:40:20;;;;;;;1.00;0.63;;;;;;;;;;4956812;28;20137;-77
2022/07/27 14:42:45;;;;;;;2.90;0.85;;;;;;;;;;4953581;28;20062;-78
2022/07/27 14:45:11;;;;;;;3.33;0.60;;;;;;;;;;4952150;28;20185;-78
2022/07/27 14:47:36;;;;;;;3.47;0.75;;;;;;;;;;4953446;28;20043;-80
2022/07/27 14:50:02;;;;;;;4.70;0.80;;;;;;;;;;4955459;28;20050;-79
2022/07/27 14:52:28;;;;;;;2.05;0.80;;;;;;;;;;4956452;28;20413;-76
2022/07/27 14:54:58;;;;;;;2.05;0.50;;;;;;;;;;4953139;28;20035;-80